.
WxDataArchive / Data Records for 2012-12-05
2012-12-04 December 2012 2012-12-06

Data Records for Wednesday, 05 December 2012

Time	Temp	Chill	HIndex	Humid	Dewpt	 Wind 	HiWind	WindDir	Rain 	Barom 
-----	----	-----	------	-----	-----	------	------	-------	-----	----- 
00:00	41.8	41.8	41.8	77	35.1	0	1	248	0.00	30.178 
00:05	41.6	41.6	41.6	77	34.9	0	1	248	0.00	30.178 
00:10	41.3	41.3	41.3	77	34.6	0	1	248	0.00	30.178 
00:15	41.2	41.2	41.2	77	34.5	0	1	248	0.00	30.186 
00:20	41.2	41.2	41.2	78	34.9	0	1	248	0.00	30.186 
00:25	41.2	41.2	41.2	78	34.9	0	1	248	0.00	30.186 
00:30	41.1	41.1	41.1	77	34.4	0	1	248	0.00	30.187 
00:35	41.1	41.1	41.1	77	34.4	0	1	248	0.00	30.187 
00:40	40.9	40.9	40.9	77	34.3	0	1	248	0.00	30.187 
00:45	40.6	40.6	40.6	78	34.3	0	1	248	0.00	30.190 
00:50	40.5	40.5	40.5	78	34.2	0	1	248	0.00	30.190 
00:55	40.5	40.5	40.5	78	34.2	0	1	248	0.00	30.190 
01:00	40.3	40.3	40.3	78	34.0	0	1	248	0.00	30.196 
01:05	40.2	40.2	40.2	78	33.9	0	1	248	0.00	30.196 
01:10	40.1	40.1	40.1	78	33.8	0	1	248	0.00	30.196 
01:15	39.9	39.9	39.9	78	33.6	0	1	248	0.00	30.204 
01:20	39.9	39.9	39.9	78	33.6	0	2	248	0.00	30.204 
01:25	39.9	39.9	39.9	78	33.6	0	1	248	0.00	30.204 
01:30	39.9	39.9	39.9	78	33.6	0	1	248	0.00	30.202 
01:35	40.1	40.1	40.1	77	33.5	0	1	248	0.00	30.202 
01:40	39.9	39.9	39.9	77	33.3	0	1	248	0.00	30.202 
01:45	39.8	39.8	39.8	78	33.5	0	1	248	0.00	30.211 
01:50	39.8	39.8	39.8	78	33.5	0	3	248	0.00	30.211 
01:55	39.8	39.8	39.8	78	33.5	0	3	248	0.00	30.211 
02:00	39.8	39.8	39.8	77	33.2	0	2	248	0.00	30.216 
02:05	39.8	39.8	39.8	77	33.2	0	2	248	0.00	30.216 
02:10	39.6	39.6	39.6	77	33.0	0	1	248	0.00	30.216 
02:15	39.6	39.6	39.6	77	33.0	0	2	248	0.00	30.223 
02:20	39.5	39.5	39.5	77	32.9	0	2	248	0.00	30.223 
02:25	39.5	39.5	39.5	77	32.9	0	2	248	0.00	30.223 
02:30	39.5	39.5	39.5	77	32.9	1	3	292	0.00	30.227 
02:35	39.3	39.3	39.3	77	32.7	1	5	292	0.00	30.227 
02:40	39.3	39.3	39.3	77	32.7	1	3	338	0.00	30.227 
02:45	39.3	39.3	39.3	77	32.7	1	4	338	0.00	30.240 
02:50	39.3	39.3	39.3	76	32.4	1	3	338	0.00	30.240 
02:55	39.2	39.2	39.2	75	32.0	2	5	338	0.00	30.240 
03:00	39.2	39.2	39.2	74	31.6	2	5	270	0.00	30.240 
03:05	38.9	38.9	38.9	74	31.3	1	7	292	0.00	30.240 
03:10	38.8	38.8	38.8	75	31.6	1	4	270	0.00	30.240 
03:15	38.5	38.5	38.5	76	31.6	0	2	315	0.00	30.249 
03:20	38.5	38.5	38.5	77	31.9	1	3	338	0.00	30.249 
03:25	38.3	38.3	38.3	77	31.7	0	2	248	0.00	30.249 
03:30	38.0	38.0	38.0	77	31.4	1	3	248	0.00	30.258 
03:35	37.8	37.8	37.8	77	31.2	0	2	292	0.00	30.258 
03:40	37.6	37.6	37.6	77	31.1	1	3	315	0.00	30.258 
03:45	37.5	37.5	37.5	77	31.0	1	3	270	0.00	30.264 
03:50	37.5	37.5	37.5	77	31.0	1	4	338	0.00	30.264 
03:55	37.3	37.3	37.3	77	30.8	1	3	22	0.00	30.264 
04:00	37.0	37.0	37.0	78	30.8	1	4	270	0.00	30.270 
04:05	36.9	36.9	36.9	78	30.7	1	4	270	0.00	30.270 
04:10	36.9	36.9	36.9	78	30.7	1	4	315	0.00	30.270 
04:15	36.6	36.6	36.6	78	30.4	1	4	292	0.00	30.272 
04:20	36.5	36.5	36.5	78	30.3	1	4	270	0.00	30.272 
04:25	36.3	36.3	36.3	78	30.1	1	3	270	0.00	30.272 
04:30	36.2	36.2	36.2	78	30.0	1	3	292	0.00	30.275 
04:35	36.0	36.0	36.0	78	29.8	1	3	292	0.00	30.275 
04:40	35.9	35.9	35.9	77	29.4	1	5	270	0.00	30.275 
04:45	35.8	35.8	35.8	77	29.3	1	5	338	0.00	30.274 
04:50	35.6	35.6	35.6	76	28.8	1	4	270	0.00	30.274 
04:55	35.5	35.5	35.5	75	28.4	2	5	292	0.00	30.274 
05:00	35.5	35.5	35.5	74	28.0	2	4	292	0.00	30.277 
05:05	35.5	35.5	35.5	74	28.0	2	5	315	0.00	30.277 
05:10	35.3	35.3	35.3	74	27.9	1	3	315	0.00	30.277 
05:15	35.3	35.3	35.3	73	27.5	1	3	338	0.00	30.286 
05:20	35.3	35.3	35.3	73	27.5	2	9	0	0.00	30.286 
05:25	35.3	35.3	35.3	73	27.5	1	4	338	0.00	30.286 
05:30	35.2	35.2	35.2	73	27.4	1	3	270	0.00	30.288 
05:35	35.2	35.2	35.2	73	27.4	1	5	338	0.00	30.288 
05:40	35.2	35.2	35.2	73	27.4	1	4	338	0.00	30.288 
05:45	35.0	35.0	35.0	73	27.2	1	4	315	0.00	30.291 
05:50	35.0	35.0	35.0	74	27.6	1	6	292	0.00	30.291 
05:55	34.9	34.9	34.9	74	27.5	1	4	315	0.00	30.291 
06:00	34.9	34.9	34.9	74	27.5	2	6	0	0.00	30.294 
06:05	34.9	34.9	34.9	74	27.5	1	5	0	0.00	30.294 
06:10	34.7	34.7	34.7	73	26.9	2	6	315	0.00	30.294 
06:15	34.7	34.7	34.7	73	26.9	2	5	292	0.00	30.303 
06:20	34.6	34.6	34.6	73	26.9	2	4	315	0.00	30.303 
06:25	34.6	34.6	34.6	74	27.2	1	3	338	0.00	30.303 
06:30	34.4	34.4	34.4	74	27.0	1	6	338	0.00	30.310 
06:35	34.3	34.3	34.3	74	26.9	1	4	338	0.00	30.310 
06:40	34.1	34.1	34.1	74	26.7	1	4	338	0.00	30.310 
06:45	34.0	34.0	34.0	75	26.9	1	6	292	0.00	30.316 
06:50	33.7	33.7	33.7	75	26.6	1	3	338	0.00	30.316 
06:55	33.5	33.5	33.5	75	26.4	2	5	338	0.00	30.316 
07:00	33.2	33.2	33.2	73	25.5	2	5	338	0.00	30.325 
07:05	33.1	33.1	33.1	72	25.1	1	4	315	0.00	30.325 
07:10	32.9	32.9	32.9	71	24.5	1	3	315	0.00	30.325 
07:15	32.7	32.7	32.7	71	24.4	0	2	315	0.00	30.335 
07:20	32.5	32.5	32.5	71	24.2	1	3	315	0.00	30.335 
07:25	32.5	32.5	32.5	71	24.2	1	6	338	0.00	30.335 
07:30	32.4	32.4	32.4	71	24.1	0	3	338	0.00	30.345 
07:35	32.1	32.1	32.1	71	23.8	0	2	22	0.00	30.345 
07:40	31.9	31.9	31.9	71	23.6	0	2	22	0.00	30.345 
07:45	31.8	31.8	31.8	71	23.5	0	3	22	0.00	30.347 
07:50	31.5	31.5	31.5	71	23.2	1	3	338	0.00	30.347 
07:55	31.3	31.3	31.3	71	23.0	0	3	338	0.00	30.347 
08:00	31.2	31.2	31.2	70	22.6	1	4	315	0.00	30.349 
08:05	31.0	31.0	31.0	70	22.4	1	4	270	0.00	30.349 
08:10	31.0	31.0	31.0	70	22.4	0	2	270	0.00	30.349 
08:15	30.9	30.9	30.9	70	22.3	1	3	270	0.00	30.360 
08:20	30.9	30.9	30.9	70	22.3	1	3	315	0.00	30.360 
08:25	30.9	30.9	30.9	69	21.9	1	3	315	0.00	30.360 
08:30	31.0	31.0	31.0	69	22.0	0	2	0	0.00	30.366 
08:35	31.0	31.0	31.0	69	22.0	1	4	315	0.00	30.366 
08:40	31.0	31.0	31.0	69	22.0	0	2	315	0.00	30.366 
08:45	31.2	31.2	31.2	69	22.2	0	4	315	0.00	30.377 
08:50	31.2	31.2	31.2	69	22.2	0	2	0	0.00	30.377 
08:55	31.3	31.3	31.3	69	22.3	1	3	0	0.00	30.377 
09:00	31.5	31.5	31.5	69	22.5	0	2	0	0.00	30.382 
09:05	31.5	31.5	31.5	69	22.5	0	3	22	0.00	30.382 
09:10	31.6	31.6	31.6	69	22.6	1	4	338	0.00	30.382 
09:15	31.8	31.8	31.8	69	22.8	1	2	338	0.00	30.392 
09:20	31.8	31.8	31.8	69	22.8	1	3	338	0.00	30.392 
09:25	31.9	31.9	31.9	67	22.2	1	4	338	0.00	30.392 
09:30	32.1	32.1	32.1	67	22.4	1	2	0	0.00	30.400 
09:35	32.2	32.2	32.2	66	22.1	1	5	338	0.00	30.400 
09:40	32.2	32.2	32.2	66	22.1	1	4	0	0.00	30.400 
09:45	32.4	32.4	32.4	65	22.0	2	7	0	0.00	30.407 
09:50	32.4	32.4	32.4	65	22.0	1	4	0	0.00	30.407 
09:55	32.5	32.5	32.5	65	22.1	2	6	338	0.00	30.407 
10:00	32.5	32.5	32.5	65	22.1	2	5	338	0.00	30.407 
10:05	32.7	32.7	32.7	65	22.3	1	5	338	0.00	30.407 
10:10	32.9	32.9	32.9	65	22.4	1	4	338	0.00	30.407 
10:15	33.2	33.2	33.2	65	22.7	1	4	338	0.00	30.412 
10:20	33.4	33.4	33.4	66	23.3	1	5	112	0.00	30.412 
10:25	33.4	33.4	33.4	65	22.9	1	6	90	0.00	30.412 
10:30	33.2	33.2	33.2	64	22.4	2	6	338	0.00	30.422 
10:35	33.4	33.4	33.4	64	22.6	1	5	112	0.00	30.422 
10:40	33.4	33.4	33.4	64	22.6	1	5	112	0.00	30.422 
10:45	33.5	33.5	33.5	64	22.6	1	3	68	0.00	30.422 
10:50	33.7	33.7	33.7	64	22.8	1	4	112	0.00	30.422 
10:55	33.8	33.8	33.8	63	22.6	1	5	45	0.00	30.422 
11:00	34.0	34.0	34.0	62	22.4	1	5	90	0.00	30.421 
11:05	34.1	34.1	34.1	63	22.8	1	3	0	0.00	30.421 
11:10	34.1	34.1	34.1	63	22.8	1	5	90	0.00	30.421 
11:15	34.3	34.3	34.3	63	23.0	1	3	45	0.00	30.416 
11:20	34.6	34.6	34.6	63	23.3	2	8	112	0.00	30.416 
11:25	34.6	34.6	34.6	63	23.3	1	4	90	0.00	30.416 
11:30	34.7	34.7	34.7	62	23.0	1	4	68	0.00	30.412 
11:35	34.9	34.9	34.9	63	23.6	1	4	90	0.00	30.412 
11:40	34.7	34.7	34.7	61	22.6	2	8	68	0.00	30.412 
11:45	34.6	34.6	34.6	62	22.9	2	7	90	0.00	30.407 
11:50	34.7	34.7	34.7	61	22.6	2	7	90	0.00	30.407 
11:55	34.6	34.6	34.6	61	22.6	2	6	112	0.00	30.407 
12:00	34.7	34.7	34.7	61	22.6	1	3	90	0.00	30.401 
12:05	34.7	34.7	34.7	62	23.0	1	4	90	0.00	30.401 
12:10	34.7	34.7	34.7	62	23.0	2	6	90	0.00	30.401 
12:15	34.9	34.9	34.9	61	22.8	2	5	112	0.00	30.393 
12:20	34.9	34.9	34.9	61	22.8	3	10	112	0.00	30.393 
12:25	35.2	35.2	35.2	61	23.1	1	3	112	0.00	30.393 
12:30	35.3	35.3	35.3	60	22.8	1	7	315	0.00	30.388 
12:35	35.3	35.3	35.3	60	22.8	3	7	90	0.00	30.388 
12:40	35.2	35.2	35.2	59	22.3	1	5	112	0.00	30.388 
12:45	35.3	35.3	35.3	59	22.4	1	6	45	0.00	30.387 
12:50	35.3	35.3	35.3	59	22.4	2	5	45	0.00	30.387 
12:55	35.3	35.3	35.3	58	22.0	1	5	90	0.00	30.387 
13:00	35.3	35.3	35.3	58	22.0	1	5	90	0.00	30.386 
13:05	35.2	35.2	35.2	59	22.3	1	4	90	0.00	30.386 
13:10	35.5	35.5	35.5	58	22.2	1	5	90	0.00	30.386 
13:15	35.5	35.5	35.5	58	22.2	1	3	90	0.00	30.385 
13:20	35.6	35.6	35.6	58	22.3	1	3	338	0.00	30.385 
13:25	35.6	35.6	35.6	56	21.5	3	5	90	0.00	30.385 
13:30	35.5	35.5	35.5	58	22.2	0	3	90	0.00	30.386 
13:35	35.6	35.6	35.6	58	22.3	2	5	90	0.00	30.386 
13:40	35.8	35.8	35.8	58	22.5	0	2	0	0.00	30.386 
13:45	35.9	35.9	35.9	57	22.2	0	2	0	0.00	30.386 
13:50	36.0	36.0	36.0	57	22.3	0	1	0	0.00	30.386 
13:55	36.2	36.2	36.2	57	22.5	0	2	338	0.00	30.386 
14:00	36.5	36.5	36.5	58	23.1	1	3	68	0.00	30.384 
14:05	36.5	36.5	36.5	57	22.7	1	4	0	0.00	30.384 
14:10	36.3	36.3	36.3	58	23.0	1	4	90	0.00	30.384 
14:15	36.3	36.3	36.3	56	22.1	0	2	22	0.00	30.387 
14:20	36.3	36.3	36.3	57	22.5	0	3	22	0.00	30.387 
14:25	36.3	36.3	36.3	57	22.5	2	5	90	0.00	30.387 
14:30	36.3	36.3	36.3	58	23.0	1	5	90	0.00	30.380 
14:35	36.3	36.3	36.3	58	23.0	2	4	90	0.00	30.380 
14:40	36.3	36.3	36.3	58	23.0	1	5	90	0.00	30.380 
14:45	36.2	36.2	36.2	58	22.9	1	3	90	0.00	30.378 
14:50	36.2	36.2	36.2	58	22.9	2	5	68	0.00	30.378 
14:55	36.3	36.3	36.3	58	23.0	1	4	112	0.00	30.378 
15:00	36.2	36.2	36.2	58	22.9	2	7	112	0.00	30.376 
15:05	36.3	36.3	36.3	59	23.4	1	5	90	0.00	30.376 
15:10	36.3	36.3	36.3	57	22.5	2	4	90	0.00	30.376 
15:15	36.3	36.3	36.3	57	22.5	0	2	90	0.00	30.372 
15:20	36.3	36.3	36.3	59	23.4	2	6	90	0.00	30.372 
15:25	36.2	36.2	36.2	59	23.3	2	6	90	0.00	30.372 
15:30	36.2	36.2	36.2	60	23.7	2	5	68	0.00	30.374 
15:35	36.3	36.3	36.3	59	23.4	1	5	90	0.00	30.374 
15:40	36.3	36.3	36.3	58	23.0	3	6	90	0.00	30.374 
15:45	36.2	36.2	36.2	58	22.9	2	5	90	0.00	30.372 
15:50	36.0	36.0	36.0	59	23.1	1	4	90	0.00	30.372 
15:55	36.0	36.0	36.0	59	23.1	1	4	90	0.00	30.372 
16:00	35.9	35.9	35.9	60	23.4	1	6	90	0.00	30.379 
16:05	35.9	35.9	35.9	59	23.0	2	5	90	0.00	30.379 
16:10	35.8	35.8	35.8	58	22.5	2	6	90	0.00	30.379 
16:15	35.6	35.6	35.6	58	22.3	3	7	90	0.00	30.379 
16:20	35.6	35.6	35.6	58	22.3	1	4	90	0.00	30.379 
16:25	35.5	35.5	35.5	57	21.8	2	6	112	0.00	30.379 
16:30	35.3	35.3	35.3	58	22.0	1	5	90	0.00	30.385 
16:35	35.2	35.2	35.2	58	21.9	2	6	90	0.00	30.385 
16:40	35.0	35.0	35.0	58	21.7	2	5	90	0.00	30.385 
16:45	34.9	34.9	34.9	58	21.6	2	4	90	0.00	30.390 
16:50	34.7	34.7	34.7	59	21.9	1	3	90	0.00	30.390 
16:55	34.6	34.6	34.6	59	21.8	2	5	90	0.00	30.390 
17:00	34.4	34.4	34.4	60	22.0	1	3	90	0.00	30.389 
17:05	34.3	34.3	34.3	60	21.9	1	3	90	0.00	30.389 
17:10	34.0	34.0	34.0	61	22.0	0	2	90	0.00	30.389 
17:15	33.8	33.8	33.8	62	22.2	0	2	90	0.00	30.391 
17:20	33.5	33.5	33.5	62	21.9	0	1	90	0.00	30.391 
17:25	33.4	33.4	33.4	63	22.2	0	2	90	0.00	30.391 
17:30	33.1	33.1	33.1	63	21.9	0	2	90	0.00	30.393 
17:35	32.8	32.8	32.8	64	22.0	0	1	90	0.00	30.393 
17:40	32.7	32.7	32.7	65	22.3	0	0	---	0.00	30.393 
17:45	32.4	32.4	32.4	65	22.0	0	1	90	0.00	30.392 
17:50	32.1	32.1	32.1	66	22.0	0	0	---	0.00	30.392 
17:55	31.8	31.8	31.8	67	22.1	0	0	---	0.00	30.392 
18:00	31.5	31.5	31.5	67	21.8	0	0	---	0.00	30.395 
18:05	31.2	31.2	31.2	68	21.9	0	0	---	0.00	30.395 
18:10	30.9	30.9	30.9	69	21.9	0	1	90	0.00	30.395 
18:15	30.7	30.7	30.7	70	22.1	0	0	---	0.00	30.399 
18:20	30.6	30.6	30.6	70	22.0	0	0	---	0.00	30.399 
18:25	30.3	30.3	30.3	70	21.7	0	0	---	0.00	30.399 
18:30	30.1	30.1	30.1	71	21.9	0	0	---	0.00	30.398 
18:35	29.8	29.8	29.8	72	21.9	0	0	---	0.00	30.398 
18:40	29.7	29.7	29.7	72	21.8	0	0	---	0.00	30.398 
18:45	29.4	29.4	29.4	73	21.8	0	0	---	0.00	30.399 
18:50	29.3	29.3	29.3	73	21.7	0	0	---	0.00	30.399 
18:55	29.1	29.1	29.1	74	21.9	0	0	---	0.00	30.399 
19:00	29.0	29.0	29.0	74	21.8	0	0	---	0.00	30.392 
19:05	28.8	28.8	28.8	75	21.9	0	0	---	0.00	30.392 
19:10	28.7	28.7	28.7	76	22.1	0	0	---	0.00	30.392 
19:15	28.5	28.5	28.5	76	21.9	0	0	---	0.00	30.389 
19:20	28.4	28.4	28.4	77	22.1	0	0	---	0.00	30.389 
19:25	28.2	28.2	28.2	77	21.9	0	0	---	0.00	30.389 
19:30	28.1	28.1	28.1	77	21.8	0	0	---	0.00	30.391 
19:35	27.9	27.9	27.9	77	21.6	0	0	---	0.00	30.391 
19:40	27.6	27.6	27.6	78	21.7	0	0	---	0.00	30.391 
19:45	27.5	27.5	27.5	78	21.6	0	0	---	0.00	30.392 
19:50	27.3	27.3	27.3	79	21.7	0	0	---	0.00	30.392 
19:55	27.2	27.2	27.2	79	21.6	0	0	---	0.00	30.392 
20:00	27.0	27.0	27.0	79	21.4	0	0	---	0.00	30.385 
20:05	26.9	26.9	26.9	79	21.3	0	0	---	0.00	30.385 
20:10	26.7	26.7	26.7	79	21.1	0	0	---	0.00	30.385 
20:15	26.6	26.6	26.6	80	21.3	0	0	---	0.00	30.387 
20:20	26.6	26.6	26.6	81	21.6	0	0	---	0.00	30.387 
20:25	26.6	26.6	26.6	81	21.6	0	0	---	0.00	30.387 
20:30	26.7	26.7	26.7	81	21.7	0	0	---	0.00	30.389 
20:35	26.6	26.6	26.6	81	21.6	0	0	---	0.00	30.389 
20:40	26.6	26.6	26.6	81	21.6	0	0	---	0.00	30.389 
20:45	26.4	26.4	26.4	82	21.7	0	0	---	0.00	30.390 
20:50	26.4	26.4	26.4	82	21.7	0	0	---	0.00	30.390 
20:55	26.3	26.3	26.3	82	21.6	0	0	---	0.00	30.390 
21:00	26.1	26.1	26.1	82	21.4	0	0	---	0.00	30.385 
21:05	26.0	26.0	26.0	82	21.3	0	0	---	0.00	30.385 
21:10	25.8	25.8	25.8	83	21.4	0	0	---	0.00	30.385 
21:15	25.7	25.7	25.7	83	21.3	0	0	---	0.00	30.378 
21:20	25.6	25.6	25.6	83	21.2	0	0	---	0.00	30.378 
21:25	25.4	25.4	25.4	83	21.0	0	0	---	0.00	30.378 
21:30	25.4	25.4	25.4	84	21.3	0	0	---	0.00	30.375 
21:35	25.3	25.3	25.3	84	21.2	0	0	---	0.00	30.375 
21:40	25.3	25.3	25.3	84	21.2	0	0	---	0.00	30.375 
21:45	25.1	25.1	25.1	84	21.0	0	0	---	0.00	30.376 
21:50	25.1	25.1	25.1	85	21.2	0	0	---	0.00	30.376 
21:55	25.0	25.0	25.0	85	21.1	0	0	---	0.00	30.376 
22:00	25.0	25.0	25.0	86	21.4	0	0	---	0.00	30.367 
22:05	25.0	25.0	25.0	86	21.4	0	0	---	0.00	30.367 
22:10	25.1	25.1	25.1	87	21.8	0	1	90	0.00	30.367 
22:15	25.7	25.7	25.7	87	22.4	1	2	90	0.00	30.361 
22:20	26.4	26.4	26.4	86	22.8	1	3	90	0.00	30.361 
22:25	27.2	27.2	27.2	84	23.0	2	4	90	0.00	30.361 
22:30	27.5	27.5	27.5	83	23.0	1	3	90	0.00	30.353 
22:35	27.8	27.8	27.8	81	22.7	1	3	45	0.00	30.353 
22:40	27.9	27.9	27.9	81	22.8	0	2	45	0.00	30.353 
22:45	27.9	27.9	27.9	80	22.5	0	2	112	0.00	30.356 
22:50	27.9	27.9	27.9	80	22.5	0	1	112	0.00	30.356 
22:55	27.9	27.9	27.9	80	22.5	0	1	112	0.00	30.356 
23:00	27.9	27.9	27.9	79	22.2	0	2	112	0.00	30.356 
23:05	27.9	27.9	27.9	79	22.2	1	3	112	0.00	30.356 
23:10	27.9	27.9	27.9	79	22.2	0	2	112	0.00	30.356 
23:15	27.9	27.9	27.9	78	21.9	1	3	112	0.00	30.350 
23:20	27.9	27.9	27.9	78	21.9	0	3	112	0.00	30.350 
23:25	27.9	27.9	27.9	78	21.9	0	2	112	0.00	30.350 
23:30	27.8	27.8	27.8	78	21.8	1	2	112	0.00	30.344 
23:35	27.8	27.8	27.8	78	21.8	0	1	112	0.00	30.344 
23:40	27.6	27.6	27.6	78	21.7	0	2	112	0.00	30.344 
23:45	27.5	27.5	27.5	78	21.6	1	2	112	0.00	30.340 
23:50	27.6	27.6	27.6	78	21.7	2	4	112	0.00	30.340 
23:55	27.6	27.6	27.6	78	21.7	2	4	90	0.00	30.340 

CoCoRaHS
IN-AL-39
A2 Web Hosting
Creative Commons License
GoDaddy
search engine by freefind advanced

loaded 2018-12-19 10:18:38 • last modified 2010-11-18 10:43:29
Privacy PolicyDisclaimer
• wx.awcolley.com is powered by PmWiki v.2002016 •
• all content (unless otherwise noted) © 2018 A W Colley